Weather reports worldwide

Advertisment
Bealach, United Kingdom (3039): temperature & dewpoint: 17.04.2019 18:00:00 - 23.04.2019 18:00:00 (BST)Bealach, United Kingdom (3039): wind speed & gusts: 17.04.2019 18:00:00 - 23.04.2019 18:00:00 (BST)Bealach, United Kingdom (3039): wind direction: 17.04.2019 18:00:00 - 23.04.2019 18:00:00 (BST)
Date & Time tt [°C] td [°C] ff [km/h] ff [kn] fx [km/h] fx [kn] dd
23.04.2019 18:00:00 11,9 1,1 21 11 - - E
23.04.2019 17:00:00 12,6 0,4 24 13 61 33 ESE
23.04.2019 16:00:00 13,6 1,0 22 12 61 33 E
23.04.2019 15:00:00 13,8 0,9 26 14 65 35 ENE
23.04.2019 14:00:00 13,8 0,5 21 11 74 40 ENE
23.04.2019 13:00:00 13,8 1,6 44 24 87 47 E
23.04.2019 12:00:00 12,9 1,7 54 29 83 45 E
23.04.2019 11:00:00 12,2 1,2 52 28 72 39 E
23.04.2019 10:00:00 11,5 -0,1 46 25 61 33 ESE
23.04.2019 09:00:00 10,9 -1,1 31 17 50 27 ESE
23.04.2019 08:00:00 11,0 -1,9 26 14 61 33 ESE
23.04.2019 07:00:00 11,1 -1,5 41 22 68 37 ESE
23.04.2019 06:00:00 10,2 0,9 29 16 54 29 ESE
23.04.2019 05:00:00 10,1 1,6 24 13 - - ESE
23.04.2019 04:00:00 10,3 2,4 21 11 - - ESE
23.04.2019 03:00:00 10,2 1,8 13 7 - - ESE
23.04.2019 02:00:00 10,5 1,6 16 9 - - ESE
23.04.2019 01:00:00 10,5 1,4 21 11 - - E
23.04.2019 00:00:00 10,6 0,8 26 14 - - E
22.04.2019 23:00:00 11,0 1,1 26 14 46 25 ESE
22.04.2019 22:00:00 11,2 3,7 9 5 - - ESE
22.04.2019 21:00:00 12,0 2,7 26 14 48 26 SSE
22.04.2019 20:00:00 12,3 2,4 35 19 - - SSW
22.04.2019 19:00:00 12,7 2,0 37 20 - - SSW
22.04.2019 18:00:00 14,3 0,8 24 13 - - SSW
22.04.2019 17:00:00 15,3 -1,7 13 7 - - WSW
22.04.2019 16:00:00 15,6 -3,0 9 5 - - WNW
22.04.2019 15:00:00 14,2 -4,9 9 5 - - NE
22.04.2019 14:00:00 13,6 -2,2 16 9 55 30 SE
22.04.2019 13:00:00 13,3 -3,0 15 8 61 33 ENE
22.04.2019 12:00:00 12,2 -0,9 41 22 68 37 SSE
22.04.2019 11:00:00 11,7 -0,1 48 26 76 41 SSE
22.04.2019 10:00:00 11,0 -1,2 44 24 98 53 SSE
22.04.2019 09:00:00 10,6 -0,4 42 23 89 48 SSE
22.04.2019 08:00:00 9,8 1,2 48 26 85 46 SSE
22.04.2019 07:00:00 9,5 1,5 55 30 93 50 S
22.04.2019 06:00:00 9,4 2,6 42 23 93 50 SSE
22.04.2019 05:00:00 9,5 5,2 41 22 80 43 SSE
22.04.2019 04:00:00 10,4 6,7 46 25 76 41 SSE
22.04.2019 03:00:00 10,4 7,3 35 19 83 45 SSE
22.04.2019 02:00:00 10,1 6,5 39 21 80 43 S
22.04.2019 01:00:00 9,9 6,0 46 25 68 37 S
22.04.2019 00:00:00 9,8 7,7 26 14 63 34 S
21.04.2019 23:00:00 9,3 8,0 28 15 76 41 S
21.04.2019 22:00:00 10,3 8,1 34 18 74 40 S
21.04.2019 21:00:00 10,4 8,5 34 18 67 36 SSE
21.04.2019 20:00:00 10,1 8,3 37 20 74 40 S
21.04.2019 19:00:00 10,1 8,1 37 20 67 36 S
21.04.2019 18:00:00 9,8 8,9 22 12 61 33 S
21.04.2019 17:00:00 9,7 9,1 28 15 65 35 S
21.04.2019 16:00:00 9,3 9,1 29 16 63 34 S
21.04.2019 15:00:00 8,7 8,7 44 24 68 37 S
21.04.2019 14:00:00 8,4 8,4 41 22 65 35 S
21.04.2019 13:00:00 8,4 8,4 37 20 52 28 S
21.04.2019 12:00:00 8,1 8,1 37 20 55 30 S
21.04.2019 11:00:00 8,0 8,0 26 14 57 31 S
21.04.2019 10:00:00 7,7 7,7 18 10 48 26 SSE
21.04.2019 09:00:00 7,4 7,4 28 15 54 29 S
21.04.2019 08:00:00 7,3 7,3 31 17 54 29 S
21.04.2019 07:00:00 7,4 7,4 42 23 55 30 S
21.04.2019 06:00:00 7,5 7,5 46 25 57 31 S
21.04.2019 05:00:00 7,4 7,4 44 24 55 30 S
21.04.2019 04:00:00 7,8 7,8 48 26 55 30 S
21.04.2019 03:00:00 7,0 7,0 37 20 52 28 S
21.04.2019 02:00:00 7,4 7,4 42 23 54 29 S
21.04.2019 01:00:00 7,3 7,3 31 17 46 25 S
21.04.2019 00:00:00 7,2 7,2 28 15 - - S
20.04.2019 23:00:00 7,3 7,3 26 14 - - S
20.04.2019 22:00:00 7,7 7,7 29 16 - - S
20.04.2019 21:00:00 7,5 7,5 29 16 - - S
20.04.2019 20:00:00 7,2 7,2 24 13 - - SW
20.04.2019 19:00:00 8,3 8,3 29 16 - - S
20.04.2019 18:00:00 7,7 7,5 13 7 - - S
20.04.2019 17:00:00 7,5 7,0 15 8 - - SSW
20.04.2019 16:00:00 7,1 6,1 22 12 - - S
20.04.2019 15:00:00 7,1 6,5 18 10 - - SSW
20.04.2019 14:00:00 7,0 6,6 28 15 - - S
20.04.2019 13:00:00 6,7 6,4 34 18 - - SSW
20.04.2019 12:00:00 6,4 6,1 35 19 - - S
20.04.2019 11:00:00 6,0 5,7 28 15 - - SSW
20.04.2019 10:00:00 6,3 6,2 26 14 - - S
20.04.2019 09:00:00 5,5 5,5 29 16 48 26 S
20.04.2019 08:00:00 5,5 5,5 37 20 52 28 S
20.04.2019 07:00:00 5,9 5,9 39 21 63 34 S
20.04.2019 06:00:00 6,7 6,7 48 26 67 36 S
20.04.2019 05:00:00 6,7 6,7 52 28 65 35 S
20.04.2019 04:00:00 7,1 6,7 52 28 67 36 S
20.04.2019 03:00:00 7,9 7,1 57 31 70 38 S
20.04.2019 02:00:00 7,9 6,9 42 23 68 37 S
20.04.2019 01:00:00 8,6 6,7 48 26 68 37 S
20.04.2019 00:00:00 9,1 5,9 54 29 68 37 S
19.04.2019 23:00:00 9,7 4,3 41 22 70 38 S
19.04.2019 22:00:00 10,8 3,9 52 28 70 38 S
19.04.2019 21:00:00 11,3 3,5 55 30 68 37 S
19.04.2019 20:00:00 11,8 2,5 42 23 63 34 S
19.04.2019 19:00:00 12,1 2,2 31 17 67 36 S
19.04.2019 18:00:00 12,2 2,8 48 26 72 39 S
19.04.2019 17:00:00 12,1 5,1 48 26 74 40 S
19.04.2019 16:00:00 12,0 4,7 50 27 65 35 S
19.04.2019 15:00:00 12,3 4,7 35 19 52 28 S
19.04.2019 14:00:00 11,9 4,4 39 21 65 35 SSE
19.04.2019 13:00:00 11,3 4,2 35 19 57 31 SSE
19.04.2019 12:00:00 10,4 3,9 29 16 55 30 S
19.04.2019 11:00:00 9,7 4,2 28 15 - - SSE
19.04.2019 10:00:00 8,9 2,9 34 18 - - SSE
19.04.2019 09:00:00 8,4 0,8 13 7 - - SE
19.04.2019 08:00:00 8,1 1,7 16 9 - - SE
19.04.2019 07:00:00 7,7 1,8 13 7 - - SE
19.04.2019 06:00:00 7,8 0,7 18 10 - - SSE
19.04.2019 05:00:00 8,1 0,5 18 10 - - SSE
19.04.2019 04:00:00 8,2 1,5 11 6 - - SE
19.04.2019 03:00:00 8,3 3,5 15 8 - - ESE
19.04.2019 02:00:00 8,5 4,9 9 5 - - SE
19.04.2019 01:00:00 9,0 5,5 18 10 - - E
19.04.2019 00:00:00 9,3 5,6 15 8 - - ESE
18.04.2019 23:00:00 9,5 5,8 11 6 - - E
18.04.2019 22:00:00 9,7 5,3 13 7 - - E
18.04.2019 21:00:00 10,0 4,8 9 5 - - ENE
18.04.2019 20:00:00 10,1 4,7 21 11 - - S
18.04.2019 19:00:00 10,0 4,3 24 13 - - SSW
18.04.2019 18:00:00 10,8 3,5 21 11 - - SSW
18.04.2019 17:00:00 12,1 0,6 11 6 - - NNE
18.04.2019 16:00:00 11,9 0,9 11 6 - - ENE
18.04.2019 15:00:00 11,9 0,6 18 10 - - E
18.04.2019 14:00:00 11,6 0,1 15 8 59 32 ESE
18.04.2019 13:00:00 10,6 -0,2 35 19 57 31 E
18.04.2019 12:00:00 9,7 0,7 22 12 48 26 E
18.04.2019 11:00:00 8,8 1,8 13 7 - - SSE
18.04.2019 10:00:00 8,0 1,9 15 8 48 26 ESE
18.04.2019 09:00:00 7,2 1,4 24 13 - - E
18.04.2019 08:00:00 7,1 1,3 28 15 48 26 E
18.04.2019 07:00:00 7,6 1,8 29 16 48 26 ESE
18.04.2019 06:00:00 7,1 1,3 13 7 - - ESE
18.04.2019 05:00:00 7,2 1,1 13 7 - - ESE
18.04.2019 04:00:00 7,2 0,5 15 8 - - SE
18.04.2019 03:00:00 6,7 0,2 13 7 - - SE
18.04.2019 02:00:00 6,4 1,1 13 7 - - SE
18.04.2019 01:00:00 6,4 1,5 15 8 - - ESE
18.04.2019 00:00:00 6,6 2,2 15 8 - - ESE
17.04.2019 23:00:00 6,4 2,7 11 6 - - SE
17.04.2019 22:00:00 6,7 3,0 11 6 - - SE
17.04.2019 21:00:00 7,2 2,7 13 7 - - ENE
17.04.2019 20:00:00 7,9 2,0 8 4 - - NNW
17.04.2019 19:00:00 8,3 0,4 9 5 - - W
17.04.2019 18:00:00 8,6 -0,4 9 5 - - SW

tt = temperature
td = dewpoint
ff = wind speed
fx = gusts
dd = wind direction

Next stations